Time;durP1;ratioP1;P1;durP2;ratioP2;P2;SDS_P1;SDS_P2;PMS_P1;PMS_P2;Temp;Humidity;BMP_temperature;BMP_pressure;BME280_temperature;BME280_humidity;BME280_pressure;Samples;Min_cycle;Max_cycle;Signal;HPM_P1;HPM_P2
2023/05/14 00:00:15;;;;;;;2.20;1.70;;;;;;;27.34;40.50;100718.28;5011936;28;20037;-50
2023/05/14 00:02:42;;;;;;;3.60;2.55;;;;;;;27.18;41.32;100719.88;5011628;28;20093;-52
2023/05/14 00:05:09;;;;;;;3.45;2.00;;;;;;;26.89;43.25;100721.22;5011365;28;20052;-53
2023/05/14 00:07:35;;;;;;;1.98;1.73;;;;;;;27.12;41.41;100716.47;5006830;28;20513;-50
2023/05/14 00:10:01;;;;;;;3.30;2.00;;;;;;;26.83;41.80;100703.28;5009880;28;20034;-48
2023/05/14 00:12:28;;;;;;;2.40;1.95;;;;;;;26.70;42.05;100710.50;5010839;28;20026;-51
2023/05/14 00:14:55;;;;;;;3.83;2.15;;;;;;;26.17;43.06;100705.88;5011697;28;20026;-51
2023/05/14 00:17:21;;;;;;;2.95;1.92;;;;;;;26.59;41.94;100704.47;5011524;28;20097;-46
2023/05/14 00:19:48;;;;;;;2.92;2.03;;;;;;;26.77;42.89;100699.06;5007366;28;20040;-47
2023/05/14 00:22:14;;;;;;;3.45;2.20;;;;;;;26.65;42.58;100707.91;5009524;28;20497;-50
2023/05/14 00:24:40;;;;;;;3.15;1.90;;;;;;;26.33;43.34;100692.56;4992730;28;20026;-51
2023/05/14 00:27:06;;;;;;;4.10;1.73;;;;;;;26.26;42.48;100694.91;5011558;28;20049;-47
2023/05/14 00:29:33;;;;;;;2.25;1.90;;;;;;;26.02;42.81;100698.81;4993369;28;20037;-47
2023/05/14 00:31:59;;;;;;;2.15;1.85;;;;;;;25.92;43.58;100696.34;4992155;28;20081;-49
2023/05/14 00:34:25;;;;;;;3.60;2.00;;;;;;;25.95;43.64;100689.44;4995606;28;20066;-48
2023/05/14 00:36:51;;;;;;;2.80;1.90;;;;;;;25.86;44.29;100691.28;5014406;28;20374;-49
2023/05/14 00:39:18;;;;;;;6.03;2.17;;;;;;;25.38;44.84;100695.41;5015541;28;20072;-50
2023/05/14 00:41:44;;;;;;;2.58;2.38;;;;;;;25.69;44.37;100695.50;5011262;28;20030;-49
2023/05/14 00:44:10;;;;;;;4.40;2.03;;;;;;;25.80;45.00;100698.84;5013406;28;20548;-46
2023/05/14 00:46:36;;;;;;;4.60;2.17;;;;;;;25.51;44.34;100696.50;5014303;28;20036;-45
2023/05/14 00:49:03;;;;;;;5.20;1.80;;;;;;;25.94;45.25;100694.09;5015471;28;20026;-45
2023/05/14 00:51:30;;;;;;;4.63;1.70;;;;;;;25.40;44.04;100693.16;5014562;28;20038;-46
2023/05/14 00:53:56;;;;;;;3.70;2.22;;;;;;;25.00;44.90;100692.91;5014880;28;20030;-46
2023/05/14 00:56:23;;;;;;;3.65;2.10;;;;;;;24.89;45.62;100690.69;5011305;28;20026;-47
2023/05/14 00:58:49;;;;;;;3.90;2.08;;;;;;;25.31;46.47;100692.28;5013874;28;20390;-46
2023/05/14 01:01:16;;;;;;;2.97;1.80;;;;;;;25.24;45.21;100694.63;5014127;28;20117;-45
2023/05/14 01:03:43;;;;;;;3.33;2.03;;;;;;;24.84;45.76;100685.31;5014710;28;20069;-47
2023/05/14 01:06:14;;;;;;;3.50;1.95;;;;;;;24.83;46.06;100692.72;5014941;28;20073;-48
2023/05/14 01:09:07;;;;;;;3.38;1.83;;;;;;;24.67;45.93;100681.28;5015134;28;20032;-46
2023/05/14 01:11:59;;;;;;;9.00;2.00;;;;;;;24.59;46.32;100692.91;4996193;28;20030;-45
2023/05/14 01:14:43;;;;;;;2.17;1.65;;;;;;;25.01;46.41;100683.59;5013473;28;20030;-47
2023/05/14 01:17:14;;;;;;;2.53;1.90;;;;;;;24.89;45.69;100690.69;5014083;28;20110;-50
2023/05/14 01:19:44;;;;;;;2.50;2.17;;;;;;;25.04;45.46;100687.63;5005210;28;20295;-48
2023/05/14 01:22:11;;;;;;;3.17;2.20;;;;;;;24.86;45.57;100683.91;5007875;28;20091;-50
2023/05/14 01:24:38;;;;;;;3.50;1.83;;;;;;;24.75;45.94;100677.00;5010409;28;20018;-47
2023/05/14 01:27:22;;;;;;;3.10;1.90;;;;;;;24.66;46.45;100681.59;5007632;28;20052;-50
2023/05/14 01:30:18;;;;;;;3.90;1.67;;;;;;;24.09;46.94;100680.97;5014567;28;20084;-49
2023/05/14 01:32:50;;;;;;;3.15;2.17;;;;;;;24.27;47.38;100677.38;5014434;28;20116;-47
2023/05/14 01:35:19;;;;;;;5.47;2.58;;;;;;;24.22;46.70;100682.94;5013975;28;20081;-49
2023/05/14 01:37:47;;;;;;;4.93;2.28;;;;;;;24.21;46.80;100681.31;5008723;28;20026;-48
2023/05/14 01:40:14;;;;;;;4.32;1.73;;;;;;;24.29;47.39;100683.34;5011355;28;20116;-46
2023/05/14 01:42:41;;;;;;;2.40;1.75;;;;;;;24.52;46.46;100681.56;5013141;28;20029;-46
2023/05/14 01:45:08;;;;;;;2.08;1.73;;;;;;;24.33;46.30;100684.38;5011482;28;20034;-47
2023/05/14 01:47:34;;;;;;;3.10;1.67;;;;;;;23.78;47.93;100684.22;5013997;28;20032;-48
2023/05/14 01:50:00;;;;;;;4.88;1.77;;;;;;;24.36;46.35;100683.78;5013727;28;20532;-46
2023/05/14 01:52:27;;;;;;;3.00;2.00;;;;;;;24.58;46.03;100683.09;5012845;28;20030;-46
2023/05/14 01:54:53;;;;;;;4.68;2.17;;;;;;;24.03;46.60;100682.16;5008784;28;20042;-46
2023/05/14 01:57:20;;;;;;;4.25;1.88;;;;;;;24.09;47.10;100683.69;4994393;28;20033;-47
2023/05/14 01:59:46;;;;;;;2.13;1.80;;;;;;;24.12;46.95;100672.16;4994495;28;20022;-46
2023/05/14 02:02:12;;;;;;;6.03;2.05;;;;;;;24.01;46.76;100671.53;4994566;28;20045;-46
2023/05/14 02:04:38;;;;;;;2.80;1.67;;;;;;;23.81;46.92;100677.34;4993772;28;20030;-46
2023/05/14 02:07:05;;;;;;;3.70;1.85;;;;;;;24.19;46.48;100680.78;4994409;28;20052;-46
2023/05/14 02:09:31;;;;;;;3.90;1.65;;;;;;;24.83;44.72;100675.50;4994347;28;20076;-46
2023/05/14 02:11:57;;;;;;;2.25;1.50;;;;;;;24.93;43.85;100667.88;4994204;28;20030;-47
2023/05/14 02:14:23;;;;;;;2.97;1.80;;;;;;;25.25;43.99;100672.41;4995533;28;20065;-48
2023/05/14 02:16:50;;;;;;;2.72;2.10;;;;;;;24.87;43.98;100682.78;4995318;28;20030;-46
2023/05/14 02:19:16;;;;;;;5.40;2.10;;;;;;;24.97;44.22;100676.28;5011681;28;20061;-46
2023/05/14 02:21:42;;;;;;;3.80;1.70;;;;;;;25.30;43.74;100673.41;5013588;28;20036;-46
2023/05/14 02:24:08;;;;;;;3.50;1.92;;;;;;;25.84;42.08;100677.91;5013300;28;20490;-49
2023/05/14 02:26:35;;;;;;;3.25;1.77;;;;;;;25.68;42.46;100674.69;5012147;28;20054;-49
2023/05/14 02:29:01;;;;;;;5.07;1.83;;;;;;;25.48;42.61;100675.97;5013609;28;20113;-48
2023/05/14 02:31:27;;;;;;;3.58;1.90;;;;;;;25.95;41.53;100676.53;5013451;28;20053;-47
2023/05/14 02:33:53;;;;;;;3.63;2.20;;;;;;;25.88;41.53;100675.34;5012222;28;20100;-48
2023/05/14 02:36:19;;;;;;;4.38;1.63;;;;;;;25.62;42.11;100675.13;5012473;28;20493;-48
2023/05/14 02:38:46;;;;;;;3.80;1.65;;;;;;;25.23;42.79;100673.84;5013573;28;20029;-46
2023/05/14 02:41:12;;;;;;;3.50;2.10;;;;;;;25.10;43.40;100670.03;5013358;28;20128;-47
2023/05/14 02:43:38;;;;;;;3.42;2.20;;;;;;;24.89;43.92;100668.81;5013158;28;20025;-49
2023/05/14 02:46:04;;;;;;;4.63;2.10;;;;;;;23.57;46.92;100669.22;5012940;28;20049;-48
2023/05/14 02:48:31;;;;;;;4.43;1.98;;;;;;;23.26;48.18;100672.41;5010165;28;20065;-48
2023/05/14 02:50:57;;;;;;;5.47;2.20;;;;;;;23.25;48.83;100665.31;4982307;28;20034;-46
2023/05/14 02:53:23;;;;;;;3.72;2.22;;;;;;;23.22;48.66;100665.13;5011505;28;20034;-47
2023/05/14 02:55:49;;;;;;;5.03;2.20;;;;;;;22.69;49.78;100667.94;4996410;28;20035;-49
2023/05/14 02:58:15;;;;;;;6.85;2.15;;;;;;;22.77;49.31;100665.41;4993388;28;20050;-49
2023/05/14 03:00:42;;;;;;;4.78;2.30;;;;;;;22.42;50.63;100661.13;4993577;28;20613;-45
2023/05/14 03:03:08;;;;;;;4.55;2.42;;;;;;;22.24;51.32;100664.63;5009666;28;20026;-46
2023/05/14 03:05:34;;;;;;;4.13;2.35;;;;;;;21.90;52.07;100662.72;5011983;28;20018;-50
2023/05/14 03:08:00;;;;;;;6.82;2.90;;;;;;;21.71;53.03;100656.31;4996686;28;20483;-49
2023/05/14 03:10:26;;;;;;;4.53;2.50;;;;;;;21.65;53.19;100660.19;4995359;28;20084;-47
2023/05/14 03:12:53;;;;;;;5.03;2.97;;;;;;;21.40;54.05;100650.31;5012666;28;20026;-50
2023/05/14 03:15:19;;;;;;;4.15;2.33;;;;;;;21.39;54.20;100657.66;5010967;28;20025;-46
2023/05/14 03:17:45;;;;;;;4.53;2.60;;;;;;;21.20;54.45;100657.47;5012238;28;20026;-47
2023/05/14 03:20:12;;;;;;;7.60;2.67;;;;;;;21.21;54.94;100652.81;5010061;28;20040;-46
2023/05/14 03:22:38;;;;;;;5.60;2.80;;;;;;;20.85;56.13;100653.03;5011294;28;20105;-46
2023/05/14 03:25:05;;;;;;;6.00;3.03;;;;;;;20.61;56.83;100666.44;5022825;28;20033;-47
2023/05/14 03:27:32;;;;;;;7.68;2.92;;;;;;;20.83;56.30;100657.94;5010888;28;20109;-45
2023/05/14 03:29:58;;;;;;;5.05;2.83;;;;;;;20.41;57.36;100667.28;5019252;28;20030;-49
2023/05/14 03:32:24;;;;;;;6.80;3.00;;;;;;;20.56;57.42;100661.84;5022282;28;20033;-49
2023/05/14 03:34:51;;;;;;;7.05;3.15;;;;;;;20.72;56.70;100664.50;5023465;28;20029;-46
2023/05/14 03:37:17;;;;;;;7.07;2.92;;;;;;;20.35;58.16;100665.66;5012109;28;20025;-47
2023/05/14 03:39:43;;;;;;;5.00;2.78;;;;;;;20.26;58.33;100667.31;5012214;28;20041;-46
2023/05/14 03:42:10;;;;;;;4.43;2.75;;;;;;;20.11;58.62;100667.34;4997650;28;20031;-46
2023/05/14 03:44:36;;;;;;;9.15;3.05;;;;;;;20.01;59.42;100673.59;4991603;28;20080;-46
2023/05/14 03:47:02;;;;;;;4.90;2.80;;;;;;;19.64;59.97;100671.13;5003222;28;20486;-46
2023/05/14 03:49:28;;;;;;;5.03;2.90;;;;;;;19.30;60.70;100674.31;5003258;28;20033;-45
2023/05/14 03:51:56;;;;;;;8.75;3.10;;;;;;;19.03;61.45;100677.22;5012259;28;20029;-46
2023/05/14 03:54:22;;;;;;;6.45;2.80;;;;;;;19.09;61.59;100678.84;5011485;28;20059;-46
2023/05/14 03:56:48;;;;;;;6.97;2.70;;;;;;;18.77;62.12;100675.47;5011322;28;20068;-48
2023/05/14 03:59:14;;;;;;;4.32;2.17;;;;;;;18.95;61.79;100670.41;5008257;28;20050;-45
2023/05/14 04:01:41;;;;;;;5.75;2.40;;;;;;;18.94;61.93;100667.97;5007942;28;20030;-44
2023/05/14 04:04:07;;;;;;;7.15;3.08;;;;;;;18.86;62.52;100669.28;5011548;28;20034;-46
2023/05/14 04:06:33;;;;;;;10.55;2.90;;;;;;;18.55;63.27;100664.78;5012247;28;20030;-46
2023/05/14 04:08:59;;;;;;;6.10;2.67;;;;;;;18.70;62.98;100673.00;5015742;28;20048;-45
2023/05/14 04:11:25;;;;;;;7.68;2.40;;;;;;;18.74;63.11;100663.28;5015647;28;20037;-46
2023/05/14 04:13:52;;;;;;;4.10;2.05;;;;;;;18.54;62.98;100666.66;5015499;28;20061;-45
2023/05/14 04:16:18;;;;;;;5.70;1.98;;;;;;;18.52;63.28;100670.72;5015405;28;20041;-48
2023/05/14 04:18:44;;;;;;;5.70;2.30;;;;;;;18.30;63.87;100662.72;5015551;28;20053;-48
2023/05/14 04:21:11;;;;;;;6.40;3.08;;;;;;;18.35;63.96;100670.91;5015665;28;20036;-48
2023/05/14 04:23:37;;;;;;;4.88;3.08;;;;;;;18.44;63.73;100667.44;5015485;28;20078;-49
2023/05/14 04:26:04;;;;;;;7.13;3.45;;;;;;;18.04;65.29;100670.66;5014820;28;20048;-48
2023/05/14 04:28:30;;;;;;;5.25;2.65;;;;;;;17.90;65.66;100664.91;5015372;28;20029;-48
2023/05/14 04:30:56;;;;;;;5.03;2.25;;;;;;;17.83;66.15;100664.31;5014566;28;20076;-45
2023/05/14 04:33:23;;;;;;;7.30;3.25;;;;;;;17.95;66.50;100666.84;5014375;28;20034;-45
2023/05/14 04:35:49;;;;;;;6.53;2.85;;;;;;;17.98;66.30;100669.00;5005684;28;20036;-44
2023/05/14 04:38:15;;;;;;;4.82;2.40;;;;;;;17.78;66.13;100674.28;5016302;28;20061;-44
2023/05/14 04:40:42;;;;;;;5.10;2.60;;;;;;;17.51;66.83;100679.66;5022137;28;20030;-47
2023/05/14 04:43:08;;;;;;;9.20;2.67;;;;;;;17.34;67.76;100675.19;5023690;28;20466;-48
2023/05/14 04:45:34;;;;;;;5.65;2.25;;;;;;;17.53;67.23;100678.34;5034446;28;20402;-47
2023/05/14 04:48:01;;;;;;;4.15;2.17;;;;;;;17.04;68.60;100674.81;5034875;28;20431;-49
2023/05/14 04:50:28;;;;;;;5.35;2.20;;;;;;;16.74;69.85;100681.50;5034512;28;20029;-47
2023/05/14 04:52:54;;;;;;;8.27;2.67;;;;;;;16.84;69.88;100687.03;5034740;28;20064;-49
2023/05/14 04:55:21;;;;;;;6.63;3.50;;;;;;;16.79;70.36;100678.06;5025585;28;20049;-45
2023/05/14 04:57:48;;;;;;;6.40;2.83;;;;;;;16.59;71.32;100687.47;5014935;28;20030;-48
2023/05/14 05:00:16;;;;;;;6.05;3.85;;;;;;;16.62;71.46;100689.69;5014242;28;20030;-44
2023/05/14 05:02:42;;;;;;;8.65;4.32;;;;;;;16.72;70.84;100685.53;5014966;28;20033;-44
2023/05/14 05:05:09;;;;;;;5.95;3.10;;;;;;;16.61;71.44;100679.16;5014566;28;20514;-45
2023/05/14 05:07:35;;;;;;;4.90;2.53;;;;;;;16.69;71.18;100692.22;5014572;28;20040;-45
2023/05/14 05:10:02;;;;;;;5.22;2.30;;;;;;;16.65;71.87;100677.56;5014571;28;20026;-44
2023/05/14 05:12:29;;;;;;;4.90;2.58;;;;;;;16.31;72.76;100688.44;5014610;28;20487;-45
2023/05/14 05:14:57;;;;;;;8.52;2.65;;;;;;;16.17;73.31;100687.16;5014361;28;20534;-47
2023/05/14 05:17:24;;;;;;;5.97;2.90;;;;;;;15.95;73.94;100684.38;5014088;28;20501;-48
2023/05/14 05:19:51;;;;;;;3.30;2.13;;;;;;;15.87;73.63;100690.16;5013250;28;20030;-45
2023/05/14 05:22:19;;;;;;;3.20;2.30;;;;;;;15.46;75.02;100692.13;5014455;28;20161;-47
2023/05/14 05:24:45;;;;;;;3.50;2.00;;;;;;;15.41;75.27;100694.72;5012442;28;20034;-46
2023/05/14 05:27:11;;;;;;;3.58;1.73;;;;;;;15.10;77.15;100700.59;5014154;28;20121;-45
2023/05/14 05:29:37;;;;;;;3.03;1.80;;;;;;;15.11;76.92;100686.88;5014133;28;20155;-48
2023/05/14 05:32:04;;;;;;;2.58;2.30;;;;;;;15.02;77.24;100691.00;5013258;28;20038;-45
2023/05/14 05:34:30;;;;;;;3.58;2.92;;;;;;;14.69;78.98;100697.06;5010557;28;20510;-46
2023/05/14 05:36:57;;;;;;;3.45;2.45;;;;;;;14.72;79.15;100691.22;5004103;28;20037;-49
2023/05/14 05:39:23;;;;;;;4.25;3.03;;;;;;;14.34;80.75;100692.50;4994993;28;20065;-48
2023/05/14 05:41:49;;;;;;;5.22;3.08;;;;;;;14.34;81.12;100684.41;4997609;28;20121;-45
2023/05/14 05:44:15;;;;;;;6.22;2.67;;;;;;;14.42;80.77;100696.69;4994431;28;20034;-45
2023/05/14 05:46:42;;;;;;;4.43;3.22;;;;;;;14.36;80.70;100690.38;4994574;28;20026;-45
2023/05/14 05:49:08;;;;;;;3.60;3.30;;;;;;;14.24;80.98;100692.25;5011000;28;20513;-49
2023/05/14 05:51:34;;;;;;;4.03;3.20;;;;;;;14.14;81.81;100697.38;5013944;28;20042;-45
2023/05/14 05:54:00;;;;;;;3.92;2.53;;;;;;;13.91;82.32;100690.91;5004456;28;20053;-47
2023/05/14 05:56:26;;;;;;;5.28;3.00;;;;;;;13.83;82.75;100685.06;4994219;28;20548;-45
2023/05/14 05:58:53;;;;;;;4.70;3.22;;;;;;;13.76;83.19;100687.03;4994161;28;20022;-52
2023/05/14 06:01:19;;;;;;;3.00;2.63;;;;;;;13.84;83.05;100695.59;4983360;28;20107;-46
2023/05/14 06:03:47;;;;;;;4.25;3.85;;;;;;;13.65;84.37;100688.63;5013631;28;20068;-46
2023/05/14 06:06:14;;;;;;;3.55;2.60;;;;;;;13.60;84.29;100694.72;5014027;28;20084;-45
2023/05/14 06:08:41;;;;;;;2.40;2.20;;;;;;;13.43;85.55;100694.53;5014012;28;20096;-46
2023/05/14 06:11:07;;;;;;;4.03;3.05;;;;;;;13.18;86.68;100691.13;5013704;28;20026;-45
2023/05/14 06:13:33;;;;;;;4.40;3.00;;;;;;;13.31;86.79;100685.59;5013765;28;20032;-44
2023/05/14 06:15:59;;;;;;;3.70;2.92;;;;;;;13.00;88.38;100683.94;5013791;28;20466;-44
2023/05/14 06:18:25;;;;;;;8.82;3.55;;;;;;;12.99;88.27;100689.50;5013337;28;20037;-45
2023/05/14 06:20:52;;;;;;;4.20;3.20;;;;;;;12.90;89.23;100689.81;5072246;23;20144;-44
2023/05/14 06:23:18;;;;;;;4.95;3.40;;;;;;;12.90;89.63;100686.31;5073120;28;20060;-44
2023/05/14 06:25:44;;;;;;;4.85;3.55;;;;;;;13.15;88.58;100687.00;5072832;28;20044;-48
2023/05/14 06:28:10;;;;;;;3.20;2.90;;;;;;;13.05;89.00;100688.63;5070877;28;20611;-45
2023/05/14 06:30:37;;;;;;;3.67;3.22;;;;;;;13.00;89.03;100683.09;5062408;28;20469;-44
2023/05/14 06:33:03;;;;;;;4.47;2.92;;;;;;;13.02;88.83;100689.88;5052372;28;20021;-45
2023/05/14 06:35:29;;;;;;;3.45;2.80;;;;;;;13.10;88.24;100686.06;5046367;28;20371;-47
2023/05/14 06:37:55;;;;;;;3.90;2.90;;;;;;;13.12;88.18;100689.34;5032871;28;20034;-45
2023/05/14 06:40:22;;;;;;;2.80;2.60;;;;;;;13.16;88.04;100686.00;5037504;28;20017;-45
2023/05/14 06:42:48;;;;;;;3.47;3.17;;;;;;;13.11;87.75;100687.72;5051632;28;20029;-45
2023/05/14 06:45:14;;;;;;;3.90;2.72;;;;;;;13.29;86.87;100681.50;5051533;28;20482;-46
2023/05/14 06:47:40;;;;;;;2.60;2.40;;;;;;;13.18;86.95;100680.38;5052645;28;20043;-45
2023/05/14 06:50:07;;;;;;;3.33;2.90;;;;;;;13.16;87.00;100677.13;5052751;28;20478;-45
2023/05/14 06:52:33;;;;;;;4.70;2.63;;;;;;;13.11;87.29;100669.72;5052403;28;20033;-45
2023/05/14 06:54:59;;;;;;;3.13;2.70;;;;;;;13.23;86.13;100671.69;5034547;28;20124;-45
2023/05/14 06:57:26;;;;;;;3.15;2.35;;;;;;;13.13;86.66;100669.50;5052038;28;20032;-44
2023/05/14 06:59:52;;;;;;;6.10;2.60;;;;;;;13.27;85.89;100670.16;5052446;28;20036;-44
2023/05/14 07:02:18;;;;;;;2.80;2.60;;;;;;;13.26;85.56;100668.53;5051469;28;20033;-44
2023/05/14 07:04:45;;;;;;;4.05;2.90;;;;;;;13.29;85.32;100673.44;5051373;28;20024;-45
2023/05/14 07:07:14;;;;;;;3.05;2.45;;;;;;;13.39;84.59;100671.84;5048484;28;20114;-44
2023/05/14 07:09:41;;;;;;;3.33;2.90;;;;;;;13.46;84.43;100671.75;5052197;28;20036;-44
2023/05/14 07:12:07;;;;;;;3.42;2.78;;;;;;;13.44;84.46;100661.25;5050774;28;20040;-45
2023/05/14 07:14:34;;;;;;;4.75;3.20;;;;;;;13.15;86.05;100665.50;5046771;28;20336;-45
2023/05/14 07:17:00;;;;;;;3.17;2.88;;;;;;;13.18;85.50;100658.88;5032430;28;20021;-45
2023/05/14 07:19:27;;;;;;;2.67;2.47;;;;;;;13.41;84.85;100660.88;5043411;28;20040;-44
2023/05/14 07:21:53;;;;;;;3.35;2.67;;;;;;;13.47;84.60;100652.69;5052054;28;20094;-45
2023/05/14 07:24:20;;;;;;;3.72;2.67;;;;;;;13.37;85.01;100649.75;5051797;28;20071;-44
2023/05/14 07:26:46;;;;;;;3.88;2.75;;;;;;;13.36;85.01;100653.47;5052142;28;20545;-44
2023/05/14 07:29:12;;;;;;;3.72;3.28;;;;;;;13.33;85.51;100653.13;5051565;28;20394;-45
2023/05/14 07:31:38;;;;;;;4.82;3.38;;;;;;;13.33;85.13;100653.13;5051587;28;20033;-48
2023/05/14 07:34:05;;;;;;;3.20;2.85;;;;;;;13.18;86.03;100653.50;5051649;28;20064;-44
2023/05/14 07:36:31;;;;;;;2.80;2.60;;;;;;;13.21;85.46;100653.06;5051766;28;20013;-47
2023/05/14 07:38:57;;;;;;;3.65;3.35;;;;;;;12.99;86.49;100657.25;5051779;28;20118;-48
2023/05/14 07:41:23;;;;;;;4.05;2.92;;;;;;;13.05;86.64;100656.38;5050642;28;20024;-48
2023/05/14 07:43:49;;;;;;;3.10;2.70;;;;;;;13.06;86.63;100652.66;5051494;28;20170;-44
2023/05/14 07:46:16;;;;;;;3.47;2.78;;;;;;;13.30;85.11;100651.72;5052037;28;20398;-46
2023/05/14 07:48:42;;;;;;;2.90;2.60;;;;;;;13.12;85.58;100649.03;5031826;28;20470;-47
2023/05/14 07:51:08;;;;;;;3.00;2.50;;;;;;;13.00;86.59;100643.63;5031830;28;20466;-47
2023/05/14 07:53:34;;;;;;;2.60;2.40;;;;;;;12.99;86.56;100639.28;5048633;28;20063;-44
2023/05/14 07:56:00;;;;;;;3.25;2.55;;;;;;;13.02;86.66;100651.44;5051620;28;20043;-44
2023/05/14 07:58:27;;;;;;;3.30;2.50;;;;;;;12.84;87.71;100639.69;5041780;28;20028;-44
2023/05/14 08:00:55;;;;;;;3.22;2.42;;;;;;;13.04;86.94;100643.97;5033145;28;20121;-45
2023/05/14 08:03:21;;;;;;;3.72;3.20;;;;;;;13.07;86.54;100633.59;5031116;28;20034;-45
2023/05/14 08:05:47;;;;;;;2.85;2.55;;;;;;;12.94;87.06;100629.22;5041710;28;20536;-44
2023/05/14 08:08:14;;;;;;;3.17;2.80;;;;;;;12.99;86.89;100631.22;5051423;28;20481;-44
2023/05/14 08:10:40;;;;;;;2.58;2.13;;;;;;;13.10;86.35;100627.78;5049788;28;20025;-45
2023/05/14 08:13:06;;;;;;;2.70;2.50;;;;;;;13.06;86.24;100628.47;5051328;28;20135;-45
2023/05/14 08:15:32;;;;;;;4.03;2.55;;;;;;;12.86;87.47;100620.66;5050944;28;20477;-47
2023/05/14 08:18:02;;;;;;;2.72;2.33;;;;;;;12.89;87.62;100626.41;5051592;28;20029;-44
2023/05/14 08:20:31;;;;;;;3.25;2.85;;;;;;;12.61;89.51;100612.72;5051157;28;20094;-44
2023/05/14 08:22:57;;;;;;;2.53;2.33;;;;;;;12.82;87.86;100608.72;5051420;28;20025;-46
2023/05/14 08:25:24;;;;;;;3.83;2.80;;;;;;;12.87;87.74;100615.03;5049179;28;20024;-45
2023/05/14 08:27:50;;;;;;;2.85;2.38;;;;;;;12.94;87.61;100607.75;5037442;28;20036;-44
2023/05/14 08:30:16;;;;;;;2.80;2.60;;;;;;;12.87;88.08;100612.34;5051132;28;20104;-45
2023/05/14 08:32:43;;;;;;;3.30;3.00;;;;;;;12.84;88.34;100606.63;5051304;28;20021;-44
2023/05/14 08:35:09;;;;;;;3.95;2.70;;;;;;;12.78;88.89;100608.38;5050901;28;20044;-44
2023/05/14 08:37:36;;;;;;;3.00;2.80;;;;;;;12.82;89.33;100606.84;5049573;28;20120;-48
2023/05/14 08:40:03;;;;;;;3.40;3.10;;;;;;;12.72;89.84;100595.84;5051255;28;20507;-44
2023/05/14 08:42:30;;;;;;;4.20;2.78;;;;;;;12.69;90.11;100593.59;5051440;28;20041;-44
2023/05/14 08:45:04;;;;;;;3.30;3.00;;;;;;;12.77;90.05;100593.31;5050929;28;20109;-47
2023/05/14 08:47:31;;;;;;;4.55;3.88;;;;;;;12.54;91.06;100593.97;5051220;28;20033;-44
2023/05/14 08:50:07;;;;;;;6.07;4.13;;;;;;;12.55;90.51;100594.81;5051301;28;20057;-44
2023/05/14 08:52:34;;;;;;;5.93;4.88;;;;;;;12.72;90.38;100597.72;5047363;28;20078;-47
2023/05/14 08:55:04;;;;;;;5.63;4.72;;;;;;;12.73;89.95;100588.59;5054380;28;20021;-44
2023/05/14 08:57:32;;;;;;;5.82;4.80;;;;;;;12.87;88.74;100590.88;5054754;28;20417;-44
2023/05/14 08:59:59;;;;;;;6.55;5.07;;;;;;;12.88;88.50;100589.00;5054592;28;20021;-44
2023/05/14 09:02:30;;;;;;;5.10;4.57;;;;;;;12.83;89.19;100589.72;5054708;28;20032;-45
2023/05/14 09:04:58;;;;;;;5.90;5.30;;;;;;;12.67;90.61;100585.78;5043296;28;20032;-44
2023/05/14 09:07:25;;;;;;;5.68;5.07;;;;;;;12.71;90.45;100590.66;5034662;28;20028;-47
2023/05/14 09:09:52;;;;;;;6.65;5.47;;;;;;;12.79;90.16;100590.38;5034522;28;20029;-44
2023/05/14 09:12:18;;;;;;;6.75;5.15;;;;;;;12.82;89.91;100590.72;5037463;28;20032;-44
2023/05/14 09:14:46;;;;;;;5.65;5.03;;;;;;;12.69;89.50;100583.66;5033904;28;20474;-45
2023/05/14 09:17:12;;;;;;;4.63;4.20;;;;;;;12.70;89.38;100589.84;5040432;28;20025;-44
2023/05/14 09:19:40;;;;;;;5.55;5.00;;;;;;;12.57;90.90;100585.47;5054110;28;20137;-45
2023/05/14 09:22:12;;;;;;;5.47;4.88;;;;;;;12.68;90.03;100591.97;5054117;28;20033;-45
2023/05/14 09:24:39;;;;;;;4.45;4.03;;;;;;;12.72;89.88;100600.41;5051520;28;20025;-44
2023/05/14 09:27:06;;;;;;;4.47;4.07;;;;;;;12.71;89.88;100599.53;5054066;28;20032;-44
2023/05/14 09:29:33;;;;;;;5.05;4.55;;;;;;;12.63;90.58;100599.88;5052101;28;20047;-47
2023/05/14 09:32:04;;;;;;;5.95;5.18;;;;;;;12.62;90.52;100584.81;5034351;28;20091;-45
2023/05/14 09:34:32;;;;;;;6.95;5.20;;;;;;;12.63;90.74;100583.75;5033995;28;20026;-44
2023/05/14 09:37:06;;;;;;;6.43;5.53;;;;;;;12.59;90.82;100585.25;5042304;28;20064;-44
2023/05/14 09:39:35;;;;;;;5.68;5.15;;;;;;;12.61;90.56;100581.31;5054085;28;20043;-44
2023/05/14 09:42:02;;;;;;;5.40;4.90;;;;;;;12.54;91.04;100583.22;5054323;28;20033;-45
2023/05/14 09:44:28;;;;;;;5.07;3.90;;;;;;;12.46;91.22;100588.09;5052818;28;20036;-47
2023/05/14 09:46:55;;;;;;;4.55;3.35;;;;;;;12.55;90.50;100586.75;5054155;28;20103;-44
2023/05/14 09:49:21;;;;;;;4.57;3.85;;;;;;;12.44;90.73;100585.66;5054127;28;20032;-45
2023/05/14 09:51:49;;;;;;;4.68;3.20;;;;;;;12.54;89.89;100587.78;5054205;28;20029;-47
2023/05/14 09:54:16;;;;;;;4.55;3.50;;;;;;;12.51;90.17;100588.25;5053752;28;20086;-44
2023/05/14 09:56:43;;;;;;;5.65;3.90;;;;;;;12.48;90.21;100586.81;5054115;28;20381;-46
2023/05/14 09:59:10;;;;;;;4.57;4.15;;;;;;;12.31;91.51;100594.66;5053928;28;20029;-47
2023/05/14 10:01:37;;;;;;;4.22;3.80;;;;;;;12.43;91.07;100594.72;5042578;28;20100;-44
2023/05/14 10:04:06;;;;;;;3.35;3.05;;;;;;;12.50;90.15;100583.94;5036514;28;20528;-43
2023/05/14 10:06:38;;;;;;;3.38;2.92;;;;;;;12.50;89.68;100578.56;5031701;28;20121;-45
2023/05/14 10:09:11;;;;;;;5.15;4.03;;;;;;;12.33;91.69;100589.91;5032665;28;20035;-45
2023/05/14 10:11:40;;;;;;;4.50;4.10;;;;;;;12.27;92.34;100590.78;5033188;28;20553;-43
2023/05/14 10:14:23;;;;;;;4.75;4.35;;;;;;;12.21;92.98;100588.16;5033714;28;20489;-43
2023/05/14 10:16:51;;;;;;;4.97;4.50;;;;;;;12.12;93.32;100585.78;5032596;28;20033;-46
2023/05/14 10:19:19;;;;;;;4.40;3.63;;;;;;;12.12;93.31;100582.28;5032814;28;20129;-43
2023/05/14 10:21:52;;;;;;;4.95;3.83;;;;;;;12.11;93.36;100586.00;5033089;28;20057;-47
2023/05/14 10:24:19;;;;;;;4.18;3.75;;;;;;;12.07;93.46;100590.16;5032780;28;20018;-42
2023/05/14 10:26:45;;;;;;;3.17;2.92;;;;;;;12.25;92.35;100586.69;5032904;28;20313;-43
2023/05/14 10:29:12;;;;;;;3.20;2.90;;;;;;;12.08;93.22;100591.81;5033102;28;20017;-44
2023/05/14 10:31:45;;;;;;;3.25;2.95;;;;;;;12.08;93.24;100595.31;5033372;28;20045;-43
2023/05/14 10:34:39;;;;;;;5.05;3.50;;;;;;;12.02;94.20;100598.06;5032519;28;20025;-43
2023/05/14 10:37:09;;;;;;;5.13;4.63;;;;;;;11.86;94.86;100597.56;5034145;28;20132;-43
2023/05/14 10:39:41;;;;;;;3.22;2.92;;;;;;;12.08;93.59;100602.53;5032472;28;20029;-47
2023/05/14 10:42:12;;;;;;;2.33;2.13;;;;;;;12.28;92.38;100608.53;5032446;28;20025;-46
2023/05/14 10:44:46;;;;;;;2.55;2.35;;;;;;;12.23;92.52;100605.69;5032554;28;20471;-44
2023/05/14 10:47:14;;;;;;;3.05;2.45;;;;;;;12.29;92.09;100612.84;5032646;28;20021;-43
2023/05/14 10:49:42;;;;;;;4.38;2.05;;;;;;;12.14;92.59;100607.84;5032280;28;20056;-46
2023/05/14 10:52:08;;;;;;;3.10;2.28;;;;;;;12.06;93.97;100605.44;5032803;28;20049;-43
2023/05/14 10:54:36;;;;;;;5.13;3.15;;;;;;;11.98;93.88;100602.22;5032034;28;20022;-45
2023/05/14 10:57:02;;;;;;;4.97;3.50;;;;;;;12.12;93.82;100604.56;5032027;28;20029;-43
2023/05/14 10:59:28;;;;;;;3.35;3.00;;;;;;;12.10;94.15;100606.66;5032610;28;20032;-43
2023/05/14 11:01:56;;;;;;;3.75;2.35;;;;;;;12.21;93.77;100610.44;5032329;28;20021;-47
2023/05/14 11:04:23;;;;;;;2.53;2.28;;;;;;;12.27;93.71;100611.41;5030879;28;20022;-43
2023/05/14 11:06:52;;;;;;;3.15;2.80;;;;;;;12.11;94.74;100610.16;5032033;28;20064;-44
2023/05/14 11:09:21;;;;;;;2.97;2.72;;;;;;;12.20;93.89;100605.31;5032322;28;20033;-46
2023/05/14 11:11:47;;;;;;;3.75;2.90;;;;;;;12.22;93.57;100608.59;5031763;28;20033;-43
2023/05/14 11:14:14;;;;;;;3.05;2.75;;;;;;;12.13;94.22;100613.44;5032271;28;20033;-45
2023/05/14 11:16:40;;;;;;;2.92;2.63;;;;;;;12.18;94.27;100610.91;5031140;28;20026;-43
2023/05/14 11:19:06;;;;;;;3.63;2.58;;;;;;;12.13;94.10;100608.88;5032007;28;20125;-43
2023/05/14 11:21:33;;;;;;;3.35;3.03;;;;;;;12.03;94.91;100599.69;5033365;28;20045;-43
2023/05/14 11:24:00;;;;;;;3.35;2.67;;;;;;;12.12;94.73;100603.75;5031753;28;20060;-47